Time;durP1;ratioP1;P1;durP2;ratioP2;P2;SDS_P1;SDS_P2;PMS_P1;PMS_P2;Temp;Humidity;BMP_temperature;BMP_pressure;BME280_temperature;BME280_humidity;BME280_pressure;Samples;Min_cycle;Max_cycle;Signal;HPM_P1;HPM_P2
2023/08/26 00:00:23;;;;;;;12.60;8.77;;;17.50;99.90;;;;;;5072270;28;20032;-61
2023/08/26 00:02:48;;;;;;;13.35;8.98;;;17.50;99.90;;;;;;5072178;28;20552;-61
2023/08/26 00:05:14;;;;;;;16.33;9.50;;;17.40;99.90;;;;;;5071913;28;20102;-61
2023/08/26 00:07:40;;;;;;;12.75;8.85;;;17.40;99.90;;;;;;5064639;28;20036;-60
2023/08/26 00:10:06;;;;;;;14.23;9.35;;;17.30;99.90;;;;;;5067322;28;20154;-61
2023/08/26 00:12:31;;;;;;;11.02;8.82;;;17.30;99.90;;;;;;5052178;28;20044;-61
2023/08/26 00:14:57;;;;;;;13.57;8.52;;;17.20;99.90;;;;;;5052125;28;20037;-61
2023/08/26 00:17:23;;;;;;;11.52;8.50;;;17.20;99.90;;;;;;5050784;28;20036;-61
2023/08/26 00:19:50;;;;;;;12.45;7.72;;;17.20;99.90;;;;;;5050551;28;20040;-61
2023/08/26 00:22:17;;;;;;;12.05;8.50;;;17.20;99.90;;;;;;5051935;28;20052;-61
2023/08/26 00:24:43;;;;;;;10.32;8.27;;;17.20;99.90;;;;;;5051981;28;20037;-61
2023/08/26 00:27:09;;;;;;;9.10;7.70;;;17.20;99.90;;;;;;5055725;28;20020;-60
2023/08/26 00:29:35;;;;;;;9.90;7.80;;;17.10;99.90;;;;;;5071788;28;20502;-61
2023/08/26 00:32:00;;;;;;;11.05;8.57;;;17.10;99.90;;;;;;5072177;28;20102;-61
2023/08/26 00:34:26;;;;;;;9.18;8.15;;;17.10;99.90;;;;;;5071922;28;20422;-61
2023/08/26 00:36:52;;;;;;;17.02;8.45;;;17.10;99.90;;;;;;5071357;28;20053;-61
2023/08/26 00:39:17;;;;;;;10.48;8.60;;;17.10;99.90;;;;;;5061723;28;20431;-60
2023/08/26 00:41:43;;;;;;;16.85;8.85;;;17.10;99.90;;;;;;5070148;28;20119;-60
2023/08/26 00:44:09;;;;;;;18.38;9.80;;;17.00;99.90;;;;;;5071573;28;20445;-61
2023/08/26 00:46:35;;;;;;;10.23;9.10;;;17.00;99.90;;;;;;5056407;28;20487;-61
2023/08/26 00:49:00;;;;;;;11.93;8.43;;;17.00;99.90;;;;;;5071225;28;20064;-61
2023/08/26 00:51:27;;;;;;;15.30;8.88;;;16.90;99.90;;;;;;5071275;28;20114;-61
2023/08/26 00:53:53;;;;;;;12.75;10.43;;;16.90;99.90;;;;;;5070151;28;20119;-61
2023/08/26 00:56:19;;;;;;;10.07;8.23;;;16.80;99.90;;;;;;5071192;28;20044;-61
2023/08/26 00:58:45;;;;;;;12.38;10.18;;;16.80;99.90;;;;;;5061682;28;20080;-60
2023/08/26 01:01:11;;;;;;;9.35;8.43;;;16.80;99.90;;;;;;5065889;28;20514;-61
2023/08/26 01:03:38;;;;;;;16.60;8.88;;;16.80;99.90;;;;;;5071172;28;20044;-60
2023/08/26 01:06:03;;;;;;;12.00;8.25;;;16.80;99.90;;;;;;5071224;28;20120;-61
2023/08/26 01:08:30;;;;;;;11.15;8.95;;;16.70;99.90;;;;;;5071341;28;20457;-61
2023/08/26 01:11:17;;;;;;;12.52;9.27;;;16.70;99.90;;;;;;5071385;28;20041;-61
2023/08/26 01:14:11;;;;;;;11.25;8.32;;;16.70;99.90;;;;;;5071075;28;20075;-60
2023/08/26 01:16:39;;;;;;;14.70;8.40;;;16.60;99.90;;;;;;5071342;28;20391;-61
2023/08/26 01:19:15;;;;;;;12.25;8.68;;;16.50;99.90;;;;;;5071390;28;20052;-60
2023/08/26 01:21:44;;;;;;;11.60;7.43;;;16.50;99.90;;;;;;5071140;28;20113;-61
2023/08/26 01:24:10;;;;;;;14.13;8.00;;;16.40;99.90;;;;;;5071344;28;20048;-60
2023/08/26 01:26:36;;;;;;;13.20;7.63;;;16.40;99.90;;;;;;5071329;28;20093;-60
2023/08/26 01:29:02;;;;;;;11.98;8.32;;;16.30;99.90;;;;;;5071507;28;20040;-60
2023/08/26 01:31:31;;;;;;;14.30;8.52;;;16.30;99.90;;;;;;5073115;28;20041;-60
2023/08/26 01:34:12;;;;;;;14.40;8.48;;;16.30;99.90;;;;;;5075152;28;20509;-60
2023/08/26 01:36:43;;;;;;;9.98;7.90;;;16.30;99.90;;;;;;5074887;28;20600;-61
2023/08/26 01:39:16;;;;;;;13.25;8.43;;;16.30;99.90;;;;;;5073486;28;20032;-60
2023/08/26 01:41:50;;;;;;;10.80;7.93;;;16.20;99.90;;;;;;5074985;28;20111;-60
2023/08/26 01:44:18;;;;;;;11.35;8.13;;;16.20;99.90;;;;;;5074762;28;20037;-60
2023/08/26 01:46:45;;;;;;;10.95;7.57;;;16.20;99.90;;;;;;5074660;28;20032;-61
2023/08/26 01:49:11;;;;;;;9.73;7.32;;;16.20;99.90;;;;;;5072189;28;20071;-60
2023/08/26 01:51:37;;;;;;;10.45;7.28;;;16.00;99.90;;;;;;5063035;28;20037;-60
2023/08/26 01:54:07;;;;;;;11.05;7.30;;;16.00;99.90;;;;;;5074737;28;20036;-60
2023/08/26 01:56:33;;;;;;;14.18;8.00;;;15.90;99.90;;;;;;5074631;28;20040;-60
2023/08/26 01:58:58;;;;;;;9.75;7.50;;;16.00;99.90;;;;;;5074740;28;20037;-60
2023/08/26 02:01:24;;;;;;;11.10;7.32;;;16.00;99.90;;;;;;5074715;28;20116;-60
2023/08/26 02:03:50;;;;;;;8.77;7.00;;;15.90;99.90;;;;;;5073194;28;20455;-60
2023/08/26 02:06:16;;;;;;;14.13;7.70;;;15.90;99.90;;;;;;5074331;28;20047;-60
2023/08/26 02:08:41;;;;;;;13.48;7.50;;;15.90;99.90;;;;;;5074286;28;20040;-60
2023/08/26 02:11:07;;;;;;;11.00;8.00;;;15.90;99.90;;;;;;5074295;28;20391;-60
2023/08/26 02:13:33;;;;;;;17.75;7.50;;;15.70;99.90;;;;;;5074377;28;20041;-60
2023/08/26 02:15:58;;;;;;;9.27;7.55;;;15.70;99.90;;;;;;5074200;28;20040;-61
2023/08/26 02:18:24;;;;;;;11.45;6.93;;;15.70;99.90;;;;;;5074488;28;20052;-60
2023/08/26 02:20:50;;;;;;;12.05;7.45;;;15.60;99.90;;;;;;5074181;28;20398;-60
2023/08/26 02:23:15;;;;;;;12.43;7.78;;;15.60;99.90;;;;;;5074446;28;20032;-60
2023/08/26 02:25:42;;;;;;;15.88;7.90;;;15.50;99.90;;;;;;5072629;28;20102;-59
2023/08/26 02:28:08;;;;;;;7.68;6.03;;;15.50;99.90;;;;;;5073221;28;20117;-60
2023/08/26 02:30:34;;;;;;;10.55;7.07;;;15.50;99.90;;;;;;5073916;28;20028;-60
2023/08/26 02:33:02;;;;;;;11.63;6.50;;;15.40;99.90;;;;;;5074000;28;20032;-61
2023/08/26 02:35:29;;;;;;;7.85;6.35;;;15.40;99.90;;;;;;5073828;28;20056;-60
2023/08/26 02:37:55;;;;;;;10.23;6.45;;;15.40;99.90;;;;;;5073886;28;20056;-60
2023/08/26 02:40:20;;;;;;;10.27;5.18;;;15.40;99.90;;;;;;5074074;28;20086;-59
2023/08/26 02:42:46;;;;;;;9.18;5.72;;;15.40;99.90;;;;;;5072629;28;20052;-60
2023/08/26 02:45:12;;;;;;;15.68;6.20;;;15.40;99.90;;;;;;5073909;28;20029;-60
2023/08/26 02:47:37;;;;;;;7.13;5.18;;;15.40;99.90;;;;;;5072878;28;20576;-59
2023/08/26 02:50:03;;;;;;;9.93;5.78;;;15.40;99.90;;;;;;5073681;28;20040;-59
2023/08/26 02:52:29;;;;;;;6.40;5.18;;;15.40;99.90;;;;;;5073799;28;20032;-60
2023/08/26 02:54:54;;;;;;;11.93;5.82;;;15.40;99.90;;;;;;5073698;28;20042;-60
2023/08/26 02:57:21;;;;;;;10.57;5.95;;;15.40;99.90;;;;;;5073314;28;20443;-60
2023/08/26 02:59:49;;;;;;;9.73;5.55;;;15.30;99.90;;;;;;5073379;28;20040;-60
2023/08/26 03:02:15;;;;;;;10.53;4.97;;;15.20;99.90;;;;;;5073242;28;20565;-59
2023/08/26 03:04:44;;;;;;;6.72;5.95;;;15.30;99.90;;;;;;5073216;28;20036;-59
2023/08/26 03:07:10;;;;;;;10.02;5.93;;;15.20;99.90;;;;;;5073622;28;20043;-60
2023/08/26 03:09:35;;;;;;;12.82;5.95;;;15.20;99.90;;;;;;5073246;28;20386;-60
2023/08/26 03:12:01;;;;;;;6.07;5.20;;;15.20;99.90;;;;;;5073332;28;20032;-60
2023/08/26 03:14:27;;;;;;;7.07;5.10;;;15.20;99.90;;;;;;5073087;28;20051;-60
2023/08/26 03:16:52;;;;;;;9.43;5.82;;;15.20;99.90;;;;;;5073236;28;20032;-60
2023/08/26 03:19:18;;;;;;;11.23;5.93;;;15.20;99.90;;;;;;5073186;28;20041;-60
2023/08/26 03:21:44;;;;;;;10.73;5.95;;;15.10;99.90;;;;;;5073097;28;20379;-60
2023/08/26 03:24:11;;;;;;;13.13;5.93;;;15.10;99.90;;;;;;5073009;28;20066;-60
2023/08/26 03:26:37;;;;;;;9.82;6.05;;;15.10;99.90;;;;;;5072854;28;20554;-60
2023/08/26 03:29:03;;;;;;;8.57;5.65;;;15.10;99.90;;;;;;5055281;28;20158;-60
2023/08/26 03:31:28;;;;;;;9.50;5.07;;;14.90;99.90;;;;;;5072747;28;20115;-60
2023/08/26 03:33:54;;;;;;;10.15;6.15;;;15.00;99.90;;;;;;5071634;28;20048;-60
2023/08/26 03:36:20;;;;;;;10.77;6.60;;;14.80;99.90;;;;;;5072632;28;20145;-61
2023/08/26 03:38:45;;;;;;;9.90;5.80;;;14.70;99.90;;;;;;5071198;28;20053;-60
2023/08/26 03:41:12;;;;;;;13.77;6.78;;;14.70;99.90;;;;;;5072723;28;20119;-60
2023/08/26 03:43:38;;;;;;;11.88;6.35;;;14.60;99.90;;;;;;5072237;28;20121;-61
2023/08/26 03:46:04;;;;;;;9.90;6.00;;;14.60;99.90;;;;;;5072509;28;20068;-61
2023/08/26 03:48:30;;;;;;;9.02;6.72;;;14.60;99.90;;;;;;5072303;28;20542;-61
2023/08/26 03:50:57;;;;;;;8.70;5.70;;;14.60;99.90;;;;;;5072324;28;20119;-60
2023/08/26 03:53:23;;;;;;;11.93;6.28;;;14.50;99.90;;;;;;5072038;28;20033;-60
2023/08/26 03:55:49;;;;;;;9.63;6.78;;;14.60;99.90;;;;;;5071000;28;20070;-60
2023/08/26 03:58:15;;;;;;;13.40;6.07;;;14.50;99.90;;;;;;5072262;28;20111;-61
2023/08/26 04:00:41;;;;;;;7.97;5.75;;;14.50;99.90;;;;;;5071063;28;20043;-60
2023/08/26 04:03:07;;;;;;;9.80;6.00;;;14.60;99.90;;;;;;5072034;28;20040;-60
2023/08/26 04:05:33;;;;;;;6.97;6.20;;;14.60;99.90;;;;;;5072180;28;20037;-61
2023/08/26 04:08:00;;;;;;;9.05;6.30;;;14.60;99.90;;;;;;5070867;28;20037;-60
2023/08/26 04:10:26;;;;;;;15.93;6.18;;;14.70;99.90;;;;;;5059641;28;20025;-61
2023/08/26 04:12:51;;;;;;;10.13;6.05;;;14.80;99.90;;;;;;5072214;28;20097;-61
2023/08/26 04:15:17;;;;;;;7.03;6.32;;;14.70;99.90;;;;;;5072400;28;20535;-61
2023/08/26 04:17:43;;;;;;;10.55;5.93;;;14.70;99.90;;;;;;5072383;28;20044;-61
2023/08/26 04:20:11;;;;;;;8.95;6.78;;;14.70;99.90;;;;;;5072135;28;20045;-61
2023/08/26 04:22:37;;;;;;;6.83;6.13;;;14.70;99.90;;;;;;5070857;28;20048;-61
2023/08/26 04:25:04;;;;;;;11.45;6.53;;;14.70;99.90;;;;;;5071768;28;20430;-61
2023/08/26 04:27:32;;;;;;;11.13;6.22;;;14.70;99.90;;;;;;5071850;28;20032;-61
2023/08/26 04:29:59;;;;;;;8.15;6.18;;;14.80;99.90;;;;;;5071723;28;20032;-60
2023/08/26 04:32:25;;;;;;;7.20;6.20;;;14.80;99.90;;;;;;5071634;28;20031;-61
2023/08/26 04:34:51;;;;;;;8.20;6.90;;;14.80;99.90;;;;;;5071603;28;20044;-60
2023/08/26 04:37:20;;;;;;;10.38;5.50;;;14.80;99.90;;;;;;5071770;28;20059;-59
2023/08/26 04:39:46;;;;;;;7.20;5.75;;;14.90;99.90;;;;;;5071859;28;20413;-59
2023/08/26 04:42:12;;;;;;;12.02;6.20;;;14.90;99.90;;;;;;5062906;28;20075;-59
2023/08/26 04:44:38;;;;;;;18.55;6.15;;;14.90;99.90;;;;;;5071824;28;20080;-59
2023/08/26 04:47:04;;;;;;;10.68;6.45;;;15.00;99.90;;;;;;5071705;28;20043;-60
2023/08/26 04:49:31;;;;;;;8.23;4.90;;;14.90;99.90;;;;;;5071830;28;20041;-59
2023/08/26 04:51:57;;;;;;;7.38;5.78;;;15.00;99.90;;;;;;5071798;28;20040;-59
2023/08/26 04:54:22;;;;;;;8.05;5.85;;;14.90;99.90;;;;;;5070217;28;20445;-59
2023/08/26 04:56:48;;;;;;;8.40;6.05;;;15.00;99.90;;;;;;5070634;28;20041;-59
2023/08/26 04:59:14;;;;;;;8.50;5.13;;;15.00;99.90;;;;;;5070307;28;20032;-59
2023/08/26 05:01:40;;;;;;;5.55;4.88;;;15.00;99.90;;;;;;5071788;28;20040;-59
2023/08/26 05:04:05;;;;;;;7.50;5.63;;;15.00;99.90;;;;;;5071873;28;20047;-60
2023/08/26 05:06:31;;;;;;;7.28;5.43;;;15.10;99.90;;;;;;5065774;28;20471;-59
2023/08/26 05:08:56;;;;;;;10.65;5.80;;;15.10;99.90;;;;;;5075703;28;20083;-59
2023/08/26 05:11:22;;;;;;;6.30;5.30;;;15.10;99.90;;;;;;5070117;28;20498;-59
2023/08/26 05:13:48;;;;;;;9.65;6.15;;;15.10;99.90;;;;;;5075373;28;20111;-59
2023/08/26 05:16:13;;;;;;;6.13;5.45;;;15.10;99.90;;;;;;5075837;28;20041;-59
2023/08/26 05:18:39;;;;;;;8.80;5.30;;;15.10;99.90;;;;;;5075578;28;20398;-59
2023/08/26 05:21:04;;;;;;;10.80;5.50;;;15.10;99.90;;;;;;5075359;28;20040;-59
2023/08/26 05:23:31;;;;;;;8.57;6.00;;;15.10;99.90;;;;;;5075237;28;20033;-59
2023/08/26 05:25:57;;;;;;;11.07;6.32;;;15.10;99.90;;;;;;5075299;28;20371;-59
2023/08/26 05:28:23;;;;;;;11.02;6.10;;;15.10;99.90;;;;;;5074325;28;20086;-59
2023/08/26 05:30:49;;;;;;;8.43;6.32;;;15.10;99.90;;;;;;5075500;28;20047;-60
2023/08/26 05:33:14;;;;;;;15.38;5.90;;;15.10;99.90;;;;;;5075558;28;20403;-60
2023/08/26 05:35:40;;;;;;;7.70;6.38;;;15.10;99.90;;;;;;5069642;28;20418;-59
2023/08/26 05:38:06;;;;;;;8.93;6.35;;;15.10;99.90;;;;;;5072166;28;20456;-60
2023/08/26 05:40:32;;;;;;;10.13;5.72;;;15.10;99.90;;;;;;5071405;28;20029;-59
2023/08/26 05:42:58;;;;;;;6.97;6.05;;;15.10;99.90;;;;;;5070433;28;20041;-60
2023/08/26 05:45:25;;;;;;;6.63;5.93;;;15.10;99.90;;;;;;5075145;28;20400;-59
2023/08/26 05:47:52;;;;;;;8.60;5.57;;;15.10;99.90;;;;;;5075134;28;20086;-60
2023/08/26 05:50:18;;;;;;;7.97;5.47;;;15.20;99.90;;;;;;5075000;28;20399;-60
2023/08/26 05:52:44;;;;;;;6.68;5.85;;;15.20;99.90;;;;;;5074940;28;20032;-60
2023/08/26 05:55:10;;;;;;;8.60;5.55;;;15.20;99.90;;;;;;5074885;28;20052;-60
2023/08/26 05:57:37;;;;;;;8.73;5.82;;;15.20;99.90;;;;;;5074721;28;20402;-59
2023/08/26 06:00:05;;;;;;;9.90;5.25;;;15.20;99.90;;;;;;5075060;28;20040;-59
2023/08/26 06:02:30;;;;;;;7.18;5.90;;;15.20;99.90;;;;;;5074703;28;20490;-59
2023/08/26 06:04:56;;;;;;;15.85;6.35;;;15.30;99.90;;;;;;5074323;28;20036;-59
2023/08/26 06:07:21;;;;;;;7.63;5.00;;;15.30;99.90;;;;;;5066544;28;20036;-58
2023/08/26 06:09:47;;;;;;;15.43;6.95;;;15.30;99.90;;;;;;5074503;28;20439;-59
2023/08/26 06:12:13;;;;;;;6.68;5.10;;;15.20;99.90;;;;;;5070095;28;20123;-59
2023/08/26 06:14:38;;;;;;;13.10;6.10;;;15.30;99.90;;;;;;5073896;28;20779;-59
2023/08/26 06:17:04;;;;;;;8.70;6.53;;;15.20;99.90;;;;;;5074153;28;20102;-59
2023/08/26 06:19:30;;;;;;;8.90;6.07;;;15.30;99.90;;;;;;5074897;28;20060;-59
2023/08/26 06:21:55;;;;;;;7.50;6.18;;;15.30;99.90;;;;;;5074176;28;20040;-59
2023/08/26 06:24:21;;;;;;;11.68;7.22;;;15.30;99.90;;;;;;5074401;28;20041;-59
2023/08/26 06:26:46;;;;;;;5.95;5.07;;;15.30;99.90;;;;;;5074238;28;20536;-59
2023/08/26 06:29:15;;;;;;;8.43;5.18;;;15.30;99.90;;;;;;5074287;28;20033;-59
2023/08/26 06:31:42;;;;;;;13.38;5.05;;;15.30;99.90;;;;;;5072828;28;20482;-60
2023/08/26 06:34:07;;;;;;;6.28;4.38;;;15.30;99.90;;;;;;5071681;28;20044;-60
2023/08/26 06:36:33;;;;;;;5.50;5.00;;;15.30;99.90;;;;;;5073847;28;20056;-60
2023/08/26 06:38:59;;;;;;;7.30;4.03;;;15.30;99.90;;;;;;5065694;28;20090;-60
2023/08/26 06:41:25;;;;;;;10.20;4.95;;;15.30;99.90;;;;;;5074232;28;20120;-60
2023/08/26 06:43:50;;;;;;;4.43;4.00;;;15.40;99.90;;;;;;5074232;28;20116;-59
2023/08/26 06:46:16;;;;;;;5.07;4.47;;;15.40;99.90;;;;;;5074257;28;20504;-60
2023/08/26 06:48:42;;;;;;;5.95;4.10;;;15.40;99.90;;;;;;5074068;28;20162;-60
2023/08/26 06:51:08;;;;;;;5.15;4.35;;;15.40;99.90;;;;;;5072758;28;20074;-60
2023/08/26 06:53:33;;;;;;;4.15;3.58;;;15.40;99.90;;;;;;5072991;28;20040;-60
2023/08/26 06:55:59;;;;;;;7.78;4.10;;;15.40;99.90;;;;;;5071385;28;20123;-60
2023/08/26 06:58:24;;;;;;;4.85;3.90;;;15.40;99.90;;;;;;5062112;28;20052;-60
2023/08/26 07:00:51;;;;;;;5.88;3.92;;;15.30;99.90;;;;;;5074410;28;20663;-60
2023/08/26 07:03:17;;;;;;;4.43;3.67;;;15.40;99.90;;;;;;5073677;28;20466;-60
2023/08/26 07:05:44;;;;;;;6.95;4.20;;;15.40;99.90;;;;;;5068140;28;20084;-60
2023/08/26 07:08:10;;;;;;;6.90;3.60;;;15.40;99.90;;;;;;5073734;28;20037;-60
2023/08/26 07:10:35;;;;;;;5.40;3.50;;;15.40;99.90;;;;;;5067689;28;20106;-60
2023/08/26 07:13:01;;;;;;;7.05;3.63;;;15.50;99.90;;;;;;5073749;28;20071;-60
2023/08/26 07:15:27;;;;;;;4.55;3.35;;;15.50;99.90;;;;;;5073648;28;20130;-59
2023/08/26 07:17:54;;;;;;;6.72;4.00;;;15.60;99.90;;;;;;5073464;28;20032;-59
2023/08/26 07:20:19;;;;;;;5.90;4.18;;;15.60;99.90;;;;;;5073441;28;20446;-60
2023/08/26 07:22:46;;;;;;;6.68;4.30;;;15.80;99.90;;;;;;5073306;28;20079;-59
2023/08/26 07:25:12;;;;;;;5.32;4.15;;;15.90;99.90;;;;;;5073050;28;20101;-59
2023/08/26 07:27:38;;;;;;;4.75;3.90;;;16.00;99.90;;;;;;5073100;28;20483;-59
2023/08/26 07:30:04;;;;;;;5.72;4.47;;;16.00;99.90;;;;;;5072733;28;20037;-59
2023/08/26 07:32:30;;;;;;;4.82;3.90;;;16.20;99.90;;;;;;5073099;28;20040;-59
2023/08/26 07:34:57;;;;;;;8.68;6.07;;;16.60;99.90;;;;;;5068122;28;20041;-59
2023/08/26 07:37:22;;;;;;;11.05;8.27;;;16.90;99.90;;;;;;5063834;28;20044;-60
2023/08/26 07:39:49;;;;;;;13.55;10.10;;;17.20;99.90;;;;;;5073087;28;20039;-60
2023/08/26 07:42:15;;;;;;;12.82;10.82;;;17.50;99.90;;;;;;5073172;28;20036;-59
2023/08/26 07:44:41;;;;;;;17.60;11.75;;;17.80;99.90;;;;;;5072913;28;20040;-60
2023/08/26 07:47:07;;;;;;;17.88;11.50;;;18.10;99.90;;;;;;5073080;28;20050;-60
2023/08/26 07:49:32;;;;;;;14.88;10.73;;;18.60;99.90;;;;;;5073010;28;20040;-59
2023/08/26 07:51:58;;;;;;;14.68;11.77;;;18.70;99.90;;;;;;5073093;28;20398;-60
2023/08/26 07:54:24;;;;;;;15.55;11.32;;;18.70;99.90;;;;;;5073301;28;20052;-60
2023/08/26 07:56:49;;;;;;;14.13;12.38;;;18.70;99.90;;;;;;5072813;28;20044;-59
2023/08/26 07:59:15;;;;;;;16.00;12.68;;;18.60;99.90;;;;;;5072866;28;20051;-60
2023/08/26 08:01:41;;;;;;;17.25;13.15;;;18.60;99.90;;;;;;5072770;28;20028;-60
2023/08/26 08:04:06;;;;;;;16.60;12.00;;;18.60;99.90;;;;;;5067962;28;20029;-60
2023/08/26 08:06:32;;;;;;;18.58;14.18;;;18.60;99.90;;;;;;5066314;28;20048;-60
2023/08/26 08:08:58;;;;;;;18.02;14.20;;;18.70;99.90;;;;;;5072755;28;20033;-60
2023/08/26 08:11:23;;;;;;;15.75;13.63;;;18.60;99.90;;;;;;5073049;28;20041;-60
2023/08/26 08:13:50;;;;;;;16.98;14.90;;;18.70;99.90;;;;;;5072476;28;20032;-59
2023/08/26 08:16:15;;;;;;;15.65;13.60;;;18.90;99.90;;;;;;5071814;28;20088;-59
2023/08/26 08:18:41;;;;;;;18.00;12.25;;;19.00;99.90;;;;;;5072569;28;20442;-60
2023/08/26 08:21:08;;;;;;;15.38;12.48;;;19.20;99.90;;;;;;5071626;28;20038;-60
2023/08/26 08:23:34;;;;;;;16.88;12.98;;;19.40;99.90;;;;;;5073017;28;20048;-59
2023/08/26 08:26:00;;;;;;;19.23;12.02;;;19.70;99.90;;;;;;5072824;28;20051;-60
2023/08/26 08:28:26;;;;;;;19.05;12.10;;;19.90;99.90;;;;;;5073025;28;20108;-60
2023/08/26 08:30:51;;;;;;;14.93;12.38;;;20.30;99.90;;;;;;5072632;28;20033;-60
2023/08/26 08:33:17;;;;;;;15.52;11.75;;;20.50;99.90;;;;;;5072388;28;20039;-60
2023/08/26 08:35:43;;;;;;;12.93;11.55;;;20.50;99.90;;;;;;5067118;28;20060;-61
2023/08/26 08:38:08;;;;;;;13.18;10.98;;;20.60;99.90;;;;;;5072510;28;20056;-59
2023/08/26 08:40:34;;;;;;;11.68;10.43;;;20.50;99.90;;;;;;5071195;28;20040;-60
2023/08/26 08:43:02;;;;;;;10.23;9.20;;;20.90;99.90;;;;;;5072026;28;20398;-60
2023/08/26 08:45:28;;;;;;;13.50;9.57;;;21.10;99.90;;;;;;5058848;28;20044;-61
2023/08/26 08:47:54;;;;;;;13.73;9.30;;;21.40;99.90;;;;;;5068250;28;20485;-60
2023/08/26 08:50:21;;;;;;;10.35;8.88;;;21.50;99.90;;;;;;5059653;28;20048;-61
2023/08/26 08:52:49;;;;;;;13.20;9.05;;;21.30;99.90;;;;;;5047660;28;20033;-60
2023/08/26 08:55:14;;;;;;;12.95;8.48;;;21.10;99.90;;;;;;5043040;28;20045;-61
2023/08/26 08:57:41;;;;;;;14.48;7.95;;;21.10;99.90;;;;;;5046641;28;20044;-60
2023/08/26 09:00:08;;;;;;;9.13;7.38;;;21.40;99.90;;;;;;5044759;28;20047;-61
2023/08/26 09:02:42;;;;;;;12.02;8.07;;;21.80;99.90;;;;;;5050225;28;20533;-60
2023/08/26 09:05:09;;;;;;;13.43;7.18;;;22.10;99.90;;;;;;5057066;28;20041;-61
2023/08/26 09:07:36;;;;;;;9.25;7.25;;;22.40;99.90;;;;;;5046612;28;20060;-61
2023/08/26 09:10:03;;;;;;;9.88;7.57;;;22.40;99.90;;;;;;5066318;28;20044;-61
2023/08/26 09:12:31;;;;;;;11.77;8.38;;;22.30;99.90;;;;;;5071702;28;20067;-61
2023/08/26 09:14:57;;;;;;;9.10;7.40;;;22.40;99.90;;;;;;5071862;28;20541;-61
2023/08/26 09:17:23;;;;;;;10.98;8.35;;;22.10;99.90;;;;;;5062247;28;20036;-61
2023/08/26 09:19:58;;;;;;;9.13;6.65;;;22.30;99.90;;;;;;5047801;28;20041;-61
2023/08/26 09:22:25;;;;;;;10.27;7.55;;;22.60;99.90;;;;;;5050200;28;20041;-61
2023/08/26 09:24:56;;;;;;;8.63;6.68;;;22.50;99.90;;;;;;5055540;28;20044;-61
2023/08/26 09:27:22;;;;;;;8.77;7.20;;;22.40;99.90;;;;;;5060861;28;20040;-61
2023/08/26 09:29:48;;;;;;;9.48;6.72;;;22.40;99.90;;;;;;5068263;28;20425;-61
2023/08/26 09:32:14;;;;;;;11.00;6.97;;;22.50;99.90;;;;;;5051431;28;20108;-62
2023/08/26 09:34:40;;;;;;;10.60;6.68;;;22.50;99.90;;;;;;5046637;28;20479;-61
2023/08/26 09:37:08;;;;;;;11.38;5.88;;;22.60;99.90;;;;;;5037838;28;20053;-62
2023/08/26 09:39:45;;;;;;;8.43;6.53;;;22.60;99.90;;;;;;5051667;28;20057;-61
2023/08/26 09:42:11;;;;;;;7.50;5.82;;;22.70;99.90;;;;;;5051583;28;20040;-61
2023/08/26 09:44:37;;;;;;;9.07;6.43;;;22.60;99.90;;;;;;5051199;28;20052;-62
2023/08/26 09:47:03;;;;;;;8.20;6.05;;;22.20;99.90;;;;;;5051357;28;20033;-61
2023/08/26 09:49:28;;;;;;;8.38;5.68;;;22.20;99.90;;;;;;5070093;28;20120;-61
2023/08/26 09:51:54;;;;;;;9.88;5.95;;;22.20;99.90;;;;;;5072700;28;20045;-61
2023/08/26 09:54:21;;;;;;;14.52;6.45;;;22.20;99.90;;;;;;5074930;28;20111;-62
2023/08/26 09:56:48;;;;;;;10.55;6.30;;;22.20;99.90;;;;;;5075177;28;20040;-61
2023/08/26 09:59:14;;;;;;;8.68;5.65;;;22.40;99.90;;;;;;5075209;28;20076;-61
2023/08/26 10:01:41;;;;;;;9.23;5.63;;;22.30;99.90;;;;;;5075059;28;20050;-61
2023/08/26 10:04:13;;;;;;;8.55;5.35;;;22.20;99.90;;;;;;5059531;28;20148;-61
2023/08/26 10:06:43;;;;;;;9.35;5.95;;;22.00;99.90;;;;;;5048625;28;20100;-62
2023/08/26 10:09:47;;;;;;;9.82;6.38;;;21.90;99.90;;;;;;5055304;28;20119;-61
2023/08/26 10:12:19;;;;;;;7.82;6.35;;;21.50;99.90;;;;;;5013477;28;20041;-61
2023/08/26 10:14:49;;;;;;;10.20;5.38;;;21.10;99.90;;;;;;5031148;28;20068;-61
2023/08/26 10:17:17;;;;;;;7.63;3.83;;;20.70;99.90;;;;;;5022454;28;20095;-61
2023/08/26 10:19:43;;;;;;;6.30;2.63;;;20.30;99.90;;;;;;5024192;28;20053;-61
2023/08/26 10:22:10;;;;;;;4.28;2.42;;;19.80;99.90;;;;;;5025931;28;20045;-61
2023/08/26 10:24:37;;;;;;;8.70;2.85;;;19.40;99.90;;;;;;5026668;28;20043;-61
2023/08/26 10:27:05;;;;;;;19.13;3.85;;;19.10;99.90;;;;;;5032363;28;20042;-61
2023/08/26 10:29:32;;;;;;;13.47;2.73;;;18.50;99.90;;;;;;5021062;28;20049;-59
2023/08/26 10:32:14;;;;;;;5.57;1.88;;;18.10;99.90;;;;;;5031230;28;20037;-60
2023/08/26 10:34:58;;;;;;;8.68;1.92;;;17.70;99.90;;;;;;5025681;28;20042;-60
2023/08/26 10:37:27;;;;;;;6.35;2.58;;;17.50;99.90;;;;;;5011123;28;20045;-59
2023/08/26 10:39:54;;;;;;;5.47;1.40;;;17.20;99.90;;;;;;5028164;28;20104;-60
2023/08/26 10:42:21;;;;;;;6.75;1.30;;;17.20;99.90;;;;;;5016769;28;20109;-60
2023/08/26 10:44:53;;;;;;;2.80;1.55;;;17.10;99.90;;;;;;5013675;28;20084;-60
2023/08/26 10:47:34;;;;;;;4.00;2.17;;;17.20;99.90;;;;;;5053271;28;20950;-60
2023/08/26 10:50:12;;;;;;;3.05;1.35;;;17.10;99.90;;;;;;5074080;28;20029;-60
2023/08/26 10:52:38;;;;;;;3.78;1.65;;;17.10;99.90;;;;;;5073903;28;20044;-59
2023/08/26 10:55:19;;;;;;;4.45;1.50;;;17.10;99.90;;;;;;5073938;28;20098;-59
2023/08/26 10:58:21;;;;;;;1.65;1.00;;;17.20;99.90;;;;;;5061403;28;20380;-59
2023/08/26 11:00:53;;;;;;;5.57;1.52;;;17.30;99.90;;;;;;5031603;28;20068;-60
2023/08/26 11:03:22;;;;;;;1.63;1.20;;;17.50;99.90;;;;;;5044693;28;20045;-60
2023/08/26 11:06:01;;;;;;;2.80;1.35;;;17.70;99.90;;;;;;5040562;28;20111;-60
2023/08/26 11:08:27;;;;;;;2.67;1.48;;;18.00;99.90;;;;;;5022734;28;20423;-60
2023/08/26 11:10:53;;;;;;;1.98;1.33;;;18.10;99.90;;;;;;5043629;28;20060;-60
2023/08/26 11:13:22;;;;;;;1.92;1.45;;;18.20;99.90;;;;;;5051341;28;20044;-60
2023/08/26 11:15:49;;;;;;;4.20;1.98;;;18.20;99.90;;;;;;5048309;28;20539;-60
2023/08/26 11:18:16;;;;;;;3.67;2.03;;;18.40;99.90;;;;;;5037259;28;20048;-60
2023/08/26 11:20:43;;;;;;;2.47;1.80;;;18.50;99.90;;;;;;5013920;28;20045;-59
2023/08/26 11:23:09;;;;;;;3.88;2.10;;;18.70;99.90;;;;;;5030946;28;20049;-59
2023/08/26 11:25:37;;;;;;;4.88;2.67;;;18.90;99.90;;;;;;5030819;28;20076;-61
2023/08/26 11:28:07;;;;;;;3.58;2.78;;;19.10;99.90;;;;;;5031063;28;20030;-60
2023/08/26 11:30:48;;;;;;;7.65;3.55;;;19.30;99.90;;;;;;5031102;28;20049;-60
2023/08/26 11:33:16;;;;;;;5.20;3.28;;;19.50;99.90;;;;;;5021119;28;20068;-60
2023/08/26 11:35:44;;;;;;;6.53;3.78;;;19.70;99.90;;;;;;5036295;28;20478;-60
2023/08/26 11:38:11;;;;;;;8.32;3.80;;;19.80;99.90;;;;;;5053194;28;20033;-60
2023/08/26 11:40:37;;;;;;;6.40;4.28;;;19.70;99.90;;;;;;5053184;28;20048;-59
2023/08/26 11:43:21;;;;;;;7.25;4.30;;;19.80;99.90;;;;;;5052796;28;20102;-60
2023/08/26 11:45:50;;;;;;;10.23;4.82;;;19.90;99.90;;;;;;5053205;28;20047;-60
2023/08/26 11:48:15;;;;;;;5.72;4.57;;;19.90;99.90;;;;;;5061455;28;20506;-60
2023/08/26 11:50:42;;;;;;;8.20;5.10;;;19.80;99.90;;;;;;5072815;28;20037;-61
2023/08/26 11:53:07;;;;;;;8.57;5.28;;;19.80;99.90;;;;;;5073029;28;20037;-60
2023/08/26 11:55:35;;;;;;;8.77;5.78;;;19.60;99.90;;;;;;5071700;28;20048;-61
2023/08/26 11:58:01;;;;;;;8.27;6.15;;;19.60;99.90;;;;;;5072934;28;20052;-60
2023/08/26 12:00:28;;;;;;;22.40;6.35;;;19.40;99.90;;;;;;5072978;28;20040;-60
2023/08/26 12:02:59;;;;;;;9.50;6.22;;;19.30;99.90;;;;;;5072927;28;20047;-60
2023/08/26 12:05:25;;;;;;;10.45;6.88;;;19.20;99.90;;;;;;5062565;28;20048;-59
2023/08/26 12:07:56;;;;;;;8.75;6.45;;;19.20;99.90;;;;;;5067538;28;20040;-60
2023/08/26 12:10:22;;;;;;;10.93;6.60;;;19.10;99.90;;;;;;5069358;28;20039;-60
2023/08/26 12:12:48;;;;;;;10.90;6.55;;;19.00;99.90;;;;;;5072234;28;20028;-60
2023/08/26 12:15:16;;;;;;;10.38;6.82;;;19.10;99.90;;;;;;5072430;28;20120;-61
2023/08/26 12:17:54;;;;;;;6.50;5.50;;;19.50;99.90;;;;;;5069268;28;20072;-60
2023/08/26 12:20:20;;;;;;;6.30;4.90;;;19.70;99.90;;;;;;5027528;28;20517;-60
2023/08/26 12:22:47;;;;;;;5.60;4.78;;;19.80;99.90;;;;;;5072464;28;20119;-61
2023/08/26 12:25:27;;;;;;;9.40;4.25;;;20.00;99.90;;;;;;5072154;28;20042;-60
2023/08/26 12:28:09;;;;;;;3.60;2.63;;;20.00;99.90;;;;;;5044841;28;20033;-61
2023/08/26 12:30:37;;;;;;;4.35;2.60;;;19.90;99.90;;;;;;5047916;28;20033;-61
2023/08/26 12:33:07;;;;;;;6.03;3.20;;;19.90;99.90;;;;;;5051405;28;20036;-61
2023/08/26 12:35:33;;;;;;;3.67;2.80;;;20.00;99.90;;;;;;5050529;28;20052;-60
2023/08/26 12:38:02;;;;;;;3.38;1.90;;;20.20;99.90;;;;;;5044060;28;20080;-61
2023/08/26 12:40:31;;;;;;;3.70;1.40;;;20.30;99.90;;;;;;5052437;28;20049;-60